sensor_id;sensor_type;location;lat;lon;timestamp;P1;durP1;ratioP1;P2;durP2;ratioP2
36815;SDS011;71982;52.294;6.760;2023-10-31T00:00:17;63.45;;;36.78;;
36815;SDS011;71982;52.294;6.760;2023-10-31T00:02:44;54.80;;;33.03;;
36815;SDS011;71982;52.294;6.760;2023-10-31T00:05:11;58.90;;;30.50;;
36815;SDS011;71982;52.294;6.760;2023-10-31T00:07:37;57.50;;;32.03;;
36815;SDS011;71982;52.294;6.760;2023-10-31T00:12:56;47.13;;;29.45;;
36815;SDS011;71982;52.294;6.760;2023-10-31T00:15:23;50.83;;;31.15;;
36815;SDS011;71982;52.294;6.760;2023-10-31T00:17:50;51.95;;;29.90;;
36815;SDS011;71982;52.294;6.760;2023-10-31T00:20:17;49.95;;;30.00;;
36815;SDS011;71982;52.294;6.760;2023-10-31T00:22:45;50.38;;;29.83;;
36815;SDS011;71982;52.294;6.760;2023-10-31T00:25:11;45.03;;;28.60;;
36815;SDS011;71982;52.294;6.760;2023-10-31T00:27:38;47.92;;;29.08;;
36815;SDS011;71982;52.294;6.760;2023-10-31T00:30:07;42.83;;;27.17;;
36815;SDS011;71982;52.294;6.760;2023-10-31T00:32:34;39.58;;;24.10;;
36815;SDS011;71982;52.294;6.760;2023-10-31T00:35:01;46.08;;;26.23;;
36815;SDS011;71982;52.294;6.760;2023-10-31T00:37:37;44.00;;;25.52;;
36815;SDS011;71982;52.294;6.760;2023-10-31T00:40:05;41.15;;;24.63;;
36815;SDS011;71982;52.294;6.760;2023-10-31T00:42:36;46.80;;;23.83;;
36815;SDS011;71982;52.294;6.760;2023-10-31T00:45:03;36.58;;;22.70;;
36815;SDS011;71982;52.294;6.760;2023-10-31T00:47:32;40.10;;;24.73;;
36815;SDS011;71982;52.294;6.760;2023-10-31T00:49:58;45.97;;;25.17;;
36815;SDS011;71982;52.294;6.760;2023-10-31T00:52:25;46.13;;;26.10;;
36815;SDS011;71982;52.294;6.760;2023-10-31T00:54:52;48.83;;;26.95;;
36815;SDS011;71982;52.294;6.760;2023-10-31T00:57:19;49.42;;;27.05;;
36815;SDS011;71982;52.294;6.760;2023-10-31T00:59:46;47.10;;;27.60;;
36815;SDS011;71982;52.294;6.760;2023-10-31T01:02:13;46.33;;;26.52;;
36815;SDS011;71982;52.294;6.760;2023-10-31T01:04:41;43.30;;;25.75;;
36815;SDS011;71982;52.294;6.760;2023-10-31T01:07:08;41.75;;;24.55;;
36815;SDS011;71982;52.294;6.760;2023-10-31T01:09:37;46.85;;;25.55;;
36815;SDS011;71982;52.294;6.760;2023-10-31T01:12:04;44.00;;;24.13;;
36815;SDS011;71982;52.294;6.760;2023-10-31T01:14:32;44.58;;;25.92;;
36815;SDS011;71982;52.294;6.760;2023-10-31T01:17:00;43.58;;;22.92;;
36815;SDS011;71982;52.294;6.760;2023-10-31T01:19:28;31.17;;;14.95;;
36815;SDS011;71982;52.294;6.760;2023-10-31T01:21:56;12.50;;;7.05;;
36815;SDS011;71982;52.294;6.760;2023-10-31T01:24:23;8.68;;;5.05;;
36815;SDS011;71982;52.294;6.760;2023-10-31T01:26:50;5.32;;;2.10;;
36815;SDS011;71982;52.294;6.760;2023-10-31T01:32:08;2.25;;;1.58;;
36815;SDS011;71982;52.294;6.760;2023-10-31T01:34:34;11.32;;;3.38;;
36815;SDS011;71982;52.294;6.760;2023-10-31T01:37:03;3.03;;;1.48;;
36815;SDS011;71982;52.294;6.760;2023-10-31T01:39:30;2.63;;;1.58;;
36815;SDS011;71982;52.294;6.760;2023-10-31T01:41:57;4.13;;;2.22;;
36815;SDS011;71982;52.294;6.760;2023-10-31T01:44:23;4.25;;;2.10;;
36815;SDS011;71982;52.294;6.760;2023-10-31T01:46:50;5.60;;;2.00;;
36815;SDS011;71982;52.294;6.760;2023-10-31T01:49:17;2.80;;;1.85;;
36815;SDS011;71982;52.294;6.760;2023-10-31T01:51:44;6.55;;;1.60;;
36815;SDS011;71982;52.294;6.760;2023-10-31T01:54:13;4.43;;;1.42;;
36815;SDS011;71982;52.294;6.760;2023-10-31T01:56:40;6.20;;;1.67;;
36815;SDS011;71982;52.294;6.760;2023-10-31T01:59:08;7.95;;;1.55;;
36815;SDS011;71982;52.294;6.760;2023-10-31T02:01:37;4.32;;;1.27;;
36815;SDS011;71982;52.294;6.760;2023-10-31T02:04:05;3.88;;;1.70;;
36815;SDS011;71982;52.294;6.760;2023-10-31T02:06:32;4.57;;;1.30;;
36815;SDS011;71982;52.294;6.760;2023-10-31T02:08:59;4.22;;;1.48;;
36815;SDS011;71982;52.294;6.760;2023-10-31T02:11:27;9.00;;;1.73;;
36815;SDS011;71982;52.294;6.760;2023-10-31T02:13:54;6.43;;;1.27;;
36815;SDS011;71982;52.294;6.760;2023-10-31T02:16:20;5.82;;;1.08;;
36815;SDS011;71982;52.294;6.760;2023-10-31T02:18:47;3.83;;;1.08;;
36815;SDS011;71982;52.294;6.760;2023-10-31T02:21:14;7.10;;;2.45;;
36815;SDS011;71982;52.294;6.760;2023-10-31T02:23:46;3.67;;;1.58;;
36815;SDS011;71982;52.294;6.760;2023-10-31T02:26:22;5.68;;;1.40;;
36815;SDS011;71982;52.294;6.760;2023-10-31T02:29:03;4.47;;;1.55;;
36815;SDS011;71982;52.294;6.760;2023-10-31T02:31:31;8.90;;;1.70;;
36815;SDS011;71982;52.294;6.760;2023-10-31T02:33:58;6.43;;;1.83;;
36815;SDS011;71982;52.294;6.760;2023-10-31T02:36:25;7.82;;;1.98;;
36815;SDS011;71982;52.294;6.760;2023-10-31T02:38:53;5.82;;;2.00;;
36815;SDS011;71982;52.294;6.760;2023-10-31T02:41:20;9.05;;;2.20;;
36815;SDS011;71982;52.294;6.760;2023-10-31T02:43:48;7.65;;;2.08;;
36815;SDS011;71982;52.294;6.760;2023-10-31T02:46:15;7.63;;;2.45;;
36815;SDS011;71982;52.294;6.760;2023-10-31T02:48:42;6.63;;;2.60;;
36815;SDS011;71982;52.294;6.760;2023-10-31T02:51:09;7.32;;;2.72;;
36815;SDS011;71982;52.294;6.760;2023-10-31T02:53:37;7.55;;;2.63;;
36815;SDS011;71982;52.294;6.760;2023-10-31T02:56:05;8.48;;;2.60;;
36815;SDS011;71982;52.294;6.760;2023-10-31T02:58:32;7.38;;;2.28;;
36815;SDS011;71982;52.294;6.760;2023-10-31T03:00:59;8.32;;;4.22;;
36815;SDS011;71982;52.294;6.760;2023-10-31T03:03:26;10.77;;;3.25;;
36815;SDS011;71982;52.294;6.760;2023-10-31T03:05:53;8.98;;;3.05;;
36815;SDS011;71982;52.294;6.760;2023-10-31T03:08:21;11.50;;;3.13;;
36815;SDS011;71982;52.294;6.760;2023-10-31T03:10:48;11.30;;;3.10;;
36815;SDS011;71982;52.294;6.760;2023-10-31T03:13:19;10.23;;;3.70;;
36815;SDS011;71982;52.294;6.760;2023-10-31T03:15:46;9.88;;;3.67;;
36815;SDS011;71982;52.294;6.760;2023-10-31T03:18:13;11.35;;;3.65;;
36815;SDS011;71982;52.294;6.760;2023-10-31T03:20:40;9.65;;;4.80;;
36815;SDS011;71982;52.294;6.760;2023-10-31T03:23:09;9.57;;;5.78;;
36815;SDS011;71982;52.294;6.760;2023-10-31T03:25:36;17.48;;;7.55;;
36815;SDS011;71982;52.294;6.760;2023-10-31T03:28:03;17.65;;;9.13;;
36815;SDS011;71982;52.294;6.760;2023-10-31T03:30:31;20.00;;;8.95;;
36815;SDS011;71982;52.294;6.760;2023-10-31T03:32:58;25.20;;;12.00;;
36815;SDS011;71982;52.294;6.760;2023-10-31T03:35:25;20.48;;;12.00;;
36815;SDS011;71982;52.294;6.760;2023-10-31T03:37:52;21.33;;;12.35;;
36815;SDS011;71982;52.294;6.760;2023-10-31T03:40:18;27.17;;;13.10;;
36815;SDS011;71982;52.294;6.760;2023-10-31T03:42:45;30.17;;;15.25;;
36815;SDS011;71982;52.294;6.760;2023-10-31T03:45:12;27.98;;;15.25;;
36815;SDS011;71982;52.294;6.760;2023-10-31T03:47:40;25.60;;;15.55;;
36815;SDS011;71982;52.294;6.760;2023-10-31T03:50:08;26.90;;;15.98;;
36815;SDS011;71982;52.294;6.760;2023-10-31T03:52:35;25.92;;;15.73;;
36815;SDS011;71982;52.294;6.760;2023-10-31T03:55:02;33.70;;;17.30;;
36815;SDS011;71982;52.294;6.760;2023-10-31T03:57:29;28.25;;;17.73;;
36815;SDS011;71982;52.294;6.760;2023-10-31T03:59:56;28.92;;;16.48;;
36815;SDS011;71982;52.294;6.760;2023-10-31T04:02:23;29.73;;;17.20;;
36815;SDS011;71982;52.294;6.760;2023-10-31T04:04:51;27.77;;;16.45;;
36815;SDS011;71982;52.294;6.760;2023-10-31T04:07:18;34.42;;;16.58;;
36815;SDS011;71982;52.294;6.760;2023-10-31T04:09:45;27.02;;;15.38;;
36815;SDS011;71982;52.294;6.760;2023-10-31T04:12:12;28.10;;;15.88;;
36815;SDS011;71982;52.294;6.760;2023-10-31T04:14:39;29.88;;;15.20;;
36815;SDS011;71982;52.294;6.760;2023-10-31T04:17:05;28.30;;;15.35;;
36815;SDS011;71982;52.294;6.760;2023-10-31T04:19:32;30.02;;;15.15;;
36815;SDS011;71982;52.294;6.760;2023-10-31T04:22:00;25.85;;;14.65;;
36815;SDS011;71982;52.294;6.760;2023-10-31T04:24:27;20.17;;;12.93;;
36815;SDS011;71982;52.294;6.760;2023-10-31T04:26:54;22.83;;;12.52;;
36815;SDS011;71982;52.294;6.760;2023-10-31T04:29:21;26.85;;;12.43;;
36815;SDS011;71982;52.294;6.760;2023-10-31T04:31:48;23.50;;;12.27;;
36815;SDS011;71982;52.294;6.760;2023-10-31T04:34:15;20.73;;;11.07;;
36815;SDS011;71982;52.294;6.760;2023-10-31T04:36:42;19.83;;;9.30;;
36815;SDS011;71982;52.294;6.760;2023-10-31T04:39:10;19.38;;;10.40;;
36815;SDS011;71982;52.294;6.760;2023-10-31T04:41:37;16.05;;;7.60;;
36815;SDS011;71982;52.294;6.760;2023-10-31T04:44:04;19.85;;;7.93;;
36815;SDS011;71982;52.294;6.760;2023-10-31T04:46:31;15.45;;;6.50;;
36815;SDS011;71982;52.294;6.760;2023-10-31T04:48:58;11.90;;;6.32;;
36815;SDS011;71982;52.294;6.760;2023-10-31T04:51:25;11.50;;;5.50;;
36815;SDS011;71982;52.294;6.760;2023-10-31T04:53:52;9.95;;;5.93;;
36815;SDS011;71982;52.294;6.760;2023-10-31T04:56:21;8.60;;;4.57;;
36815;SDS011;71982;52.294;6.760;2023-10-31T04:58:47;9.68;;;5.05;;
36815;SDS011;71982;52.294;6.760;2023-10-31T05:01:15;7.53;;;4.80;;
36815;SDS011;71982;52.294;6.760;2023-10-31T05:03:42;10.75;;;5.20;;
36815;SDS011;71982;52.294;6.760;2023-10-31T05:06:09;10.85;;;5.20;;
36815;SDS011;71982;52.294;6.760;2023-10-31T05:08:36;10.80;;;6.05;;
36815;SDS011;71982;52.294;6.760;2023-10-31T05:11:03;12.95;;;6.20;;
36815;SDS011;71982;52.294;6.760;2023-10-31T05:13:31;12.80;;;6.82;;
36815;SDS011;71982;52.294;6.760;2023-10-31T05:15:58;10.45;;;6.75;;
36815;SDS011;71982;52.294;6.760;2023-10-31T05:18:25;14.65;;;8.15;;
36815;SDS011;71982;52.294;6.760;2023-10-31T05:20:52;15.13;;;8.30;;
36815;SDS011;71982;52.294;6.760;2023-10-31T05:23:19;12.20;;;8.18;;
36815;SDS011;71982;52.294;6.760;2023-10-31T05:25:45;17.52;;;8.55;;
36815;SDS011;71982;52.294;6.760;2023-10-31T05:28:12;17.23;;;9.32;;
36815;SDS011;71982;52.294;6.760;2023-10-31T05:30:40;15.45;;;9.45;;
36815;SDS011;71982;52.294;6.760;2023-10-31T05:33:07;17.98;;;10.75;;
36815;SDS011;71982;52.294;6.760;2023-10-31T05:35:35;13.38;;;9.63;;
36815;SDS011;71982;52.294;6.760;2023-10-31T05:38:02;13.88;;;9.43;;
36815;SDS011;71982;52.294;6.760;2023-10-31T05:40:28;18.67;;;10.05;;
36815;SDS011;71982;52.294;6.760;2023-10-31T05:42:57;18.88;;;11.40;;
36815;SDS011;71982;52.294;6.760;2023-10-31T05:45:24;16.98;;;11.60;;
36815;SDS011;71982;52.294;6.760;2023-10-31T05:47:52;22.10;;;12.15;;
36815;SDS011;71982;52.294;6.760;2023-10-31T05:50:19;23.98;;;11.82;;
36815;SDS011;71982;52.294;6.760;2023-10-31T05:52:46;16.80;;;11.82;;
36815;SDS011;71982;52.294;6.760;2023-10-31T05:55:13;17.67;;;11.15;;
36815;SDS011;71982;52.294;6.760;2023-10-31T05:57:40;18.48;;;11.52;;
36815;SDS011;71982;52.294;6.760;2023-10-31T06:00:07;20.83;;;11.80;;
36815;SDS011;71982;52.294;6.760;2023-10-31T06:02:35;16.00;;;10.32;;
36815;SDS011;71982;52.294;6.760;2023-10-31T06:05:03;18.13;;;11.68;;
36815;SDS011;71982;52.294;6.760;2023-10-31T06:07:31;16.38;;;11.35;;
36815;SDS011;71982;52.294;6.760;2023-10-31T06:09:58;17.73;;;11.82;;
36815;SDS011;71982;52.294;6.760;2023-10-31T06:12:25;19.88;;;11.15;;
36815;SDS011;71982;52.294;6.760;2023-10-31T06:14:52;15.18;;;10.10;;
36815;SDS011;71982;52.294;6.760;2023-10-31T06:17:19;17.02;;;10.65;;
36815;SDS011;71982;52.294;6.760;2023-10-31T06:19:46;18.70;;;10.60;;
36815;SDS011;71982;52.294;6.760;2023-10-31T06:22:17;16.20;;;9.55;;
36815;SDS011;71982;52.294;6.760;2023-10-31T06:24:45;13.77;;;7.85;;
36815;SDS011;71982;52.294;6.760;2023-10-31T06:27:12;13.88;;;7.85;;
36815;SDS011;71982;52.294;6.760;2023-10-31T06:29:40;14.38;;;8.13;;
36815;SDS011;71982;52.294;6.760;2023-10-31T06:32:07;13.77;;;7.25;;
36815;SDS011;71982;52.294;6.760;2023-10-31T06:34:34;11.55;;;7.10;;
36815;SDS011;71982;52.294;6.760;2023-10-31T06:37:02;13.90;;;6.82;;
36815;SDS011;71982;52.294;6.760;2023-10-31T06:39:32;13.60;;;7.75;;
36815;SDS011;71982;52.294;6.760;2023-10-31T06:42:00;11.77;;;7.05;;
36815;SDS011;71982;52.294;6.760;2023-10-31T06:44:26;14.15;;;7.95;;
36815;SDS011;71982;52.294;6.760;2023-10-31T06:46:53;12.88;;;7.18;;
36815;SDS011;71982;52.294;6.760;2023-10-31T06:49:20;15.82;;;7.70;;
36815;SDS011;71982;52.294;6.760;2023-10-31T06:51:49;16.08;;;8.40;;
36815;SDS011;71982;52.294;6.760;2023-10-31T06:54:15;14.43;;;7.20;;
36815;SDS011;71982;52.294;6.760;2023-10-31T06:56:44;15.18;;;8.38;;
36815;SDS011;71982;52.294;6.760;2023-10-31T06:59:10;12.30;;;6.82;;
36815;SDS011;71982;52.294;6.760;2023-10-31T07:01:37;17.42;;;6.82;;
36815;SDS011;71982;52.294;6.760;2023-10-31T07:04:04;11.07;;;6.63;;
36815;SDS011;71982;52.294;6.760;2023-10-31T07:06:31;12.32;;;6.90;;
36815;SDS011;71982;52.294;6.760;2023-10-31T07:08:58;12.95;;;6.15;;
36815;SDS011;71982;52.294;6.760;2023-10-31T07:11:29;13.85;;;5.72;;
36815;SDS011;71982;52.294;6.760;2023-10-31T07:14:00;12.52;;;5.93;;
36815;SDS011;71982;52.294;6.760;2023-10-31T07:16:27;30.77;;;7.90;;
36815;SDS011;71982;52.294;6.760;2023-10-31T07:18:54;8.75;;;4.93;;
36815;SDS011;71982;52.294;6.760;2023-10-31T07:21:26;10.63;;;5.20;;
36815;SDS011;71982;52.294;6.760;2023-10-31T07:26:20;14.27;;;4.53;;
36815;SDS011;71982;52.294;6.760;2023-10-31T07:28:47;13.05;;;5.05;;
36815;SDS011;71982;52.294;6.760;2023-10-31T07:31:15;9.95;;;4.60;;
36815;SDS011;71982;52.294;6.760;2023-10-31T07:33:43;11.30;;;4.80;;
36815;SDS011;71982;52.294;6.760;2023-10-31T07:36:10;10.18;;;4.82;;
36815;SDS011;71982;52.294;6.760;2023-10-31T07:38:37;12.90;;;4.55;;
36815;SDS011;71982;52.294;6.760;2023-10-31T07:41:04;10.05;;;4.90;;
36815;SDS011;71982;52.294;6.760;2023-10-31T07:43:31;9.95;;;4.07;;
36815;SDS011;71982;52.294;6.760;2023-10-31T07:45:57;8.23;;;4.10;;
36815;SDS011;71982;52.294;6.760;2023-10-31T07:48:26;10.85;;;4.43;;
36815;SDS011;71982;52.294;6.760;2023-10-31T07:50:57;8.77;;;4.18;;
36815;SDS011;71982;52.294;6.760;2023-10-31T07:53:29;13.18;;;4.97;;
36815;SDS011;71982;52.294;6.760;2023-10-31T07:55:55;7.20;;;4.53;;
36815;SDS011;71982;52.294;6.760;2023-10-31T07:58:22;8.23;;;4.57;;
36815;SDS011;71982;52.294;6.760;2023-10-31T08:00:50;8.93;;;4.65;;
36815;SDS011;71982;52.294;6.760;2023-10-31T08:03:16;7.05;;;4.75;;
36815;SDS011;71982;52.294;6.760;2023-10-31T08:05:45;7.88;;;4.28;;
36815;SDS011;71982;52.294;6.760;2023-10-31T08:08:11;9.23;;;4.78;;
36815;SDS011;71982;52.294;6.760;2023-10-31T08:10:38;9.02;;;4.43;;
36815;SDS011;71982;52.294;6.760;2023-10-31T08:13:09;13.80;;;5.28;;
36815;SDS011;71982;52.294;6.760;2023-10-31T08:15:36;10.25;;;4.63;;
36815;SDS011;71982;52.294;6.760;2023-10-31T08:18:08;15.93;;;7.25;;
36815;SDS011;71982;52.294;6.760;2023-10-31T08:20:35;12.43;;;4.80;;
36815;SDS011;71982;52.294;6.760;2023-10-31T08:23:03;10.75;;;5.28;;
36815;SDS011;71982;52.294;6.760;2023-10-31T08:25:30;10.88;;;5.15;;
36815;SDS011;71982;52.294;6.760;2023-10-31T08:27:59;11.95;;;5.45;;
36815;SDS011;71982;52.294;6.760;2023-10-31T08:30:26;9.13;;;5.18;;
36815;SDS011;71982;52.294;6.760;2023-10-31T08:32:52;8.48;;;5.15;;
36815;SDS011;71982;52.294;6.760;2023-10-31T08:35:19;9.63;;;4.78;;
36815;SDS011;71982;52.294;6.760;2023-10-31T08:37:46;10.75;;;5.40;;
36815;SDS011;71982;52.294;6.760;2023-10-31T08:40:14;10.85;;;4.47;;
36815;SDS011;71982;52.294;6.760;2023-10-31T08:42:41;7.45;;;4.07;;
36815;SDS011;71982;52.294;6.760;2023-10-31T08:45:20;10.13;;;4.40;;
36815;SDS011;71982;52.294;6.760;2023-10-31T08:47:47;6.53;;;3.80;;
36815;SDS011;71982;52.294;6.760;2023-10-31T08:50:15;8.90;;;4.30;;
36815;SDS011;71982;52.294;6.760;2023-10-31T08:52:42;7.60;;;4.95;;
36815;SDS011;71982;52.294;6.760;2023-10-31T08:55:09;10.80;;;3.80;;
36815;SDS011;71982;52.294;6.760;2023-10-31T08:57:37;6.88;;;3.85;;
36815;SDS011;71982;52.294;6.760;2023-10-31T09:00:04;7.40;;;4.00;;
36815;SDS011;71982;52.294;6.760;2023-10-31T09:02:33;10.50;;;3.80;;
36815;SDS011;71982;52.294;6.760;2023-10-31T09:05:00;6.53;;;3.92;;
36815;SDS011;71982;52.294;6.760;2023-10-31T09:07:27;10.02;;;3.67;;
36815;SDS011;71982;52.294;6.760;2023-10-31T09:09:54;5.53;;;3.50;;
36815;SDS011;71982;52.294;6.760;2023-10-31T09:12:20;9.60;;;4.50;;
36815;SDS011;71982;52.294;6.760;2023-10-31T09:14:49;5.10;;;3.58;;
36815;SDS011;71982;52.294;6.760;2023-10-31T09:17:15;5.82;;;3.65;;
36815;SDS011;71982;52.294;6.760;2023-10-31T09:19:42;7.57;;;4.13;;
36815;SDS011;71982;52.294;6.760;2023-10-31T09:22:11;11.32;;;3.85;;
36815;SDS011;71982;52.294;6.760;2023-10-31T09:24:38;5.88;;;3.70;;
36815;SDS011;71982;52.294;6.760;2023-10-31T09:27:05;7.55;;;3.97;;
36815;SDS011;71982;52.294;6.760;2023-10-31T09:29:32;5.90;;;3.50;;
36815;SDS011;71982;52.294;6.760;2023-10-31T09:32:00;6.95;;;3.38;;
36815;SDS011;71982;52.294;6.760;2023-10-31T09:34:27;8.48;;;3.50;;
36815;SDS011;71982;52.294;6.760;2023-10-31T09:36:54;7.15;;;3.40;;
36815;SDS011;71982;52.294;6.760;2023-10-31T09:39:20;7.70;;;3.53;;
36815;SDS011;71982;52.294;6.760;2023-10-31T09:41:48;7.53;;;3.97;;
36815;SDS011;71982;52.294;6.760;2023-10-31T09:44:15;7.57;;;3.70;;
36815;SDS011;71982;52.294;6.760;2023-10-31T09:46:41;8.35;;;3.78;;
36815;SDS011;71982;52.294;6.760;2023-10-31T09:49:11;5.13;;;3.33;;
36815;SDS011;71982;52.294;6.760;2023-10-31T09:51:38;8.45;;;3.78;;
36815;SDS011;71982;52.294;6.760;2023-10-31T09:54:05;7.57;;;3.55;;
36815;SDS011;71982;52.294;6.760;2023-10-31T09:56:34;3.88;;;3.03;;
36815;SDS011;71982;52.294;6.760;2023-10-31T09:59:01;8.13;;;3.75;;
36815;SDS011;71982;52.294;6.760;2023-10-31T10:01:28;5.75;;;3.40;;
36815;SDS011;71982;52.294;6.760;2023-10-31T10:03:55;5.97;;;3.63;;
36815;SDS011;71982;52.294;6.760;2023-10-31T10:06:24;8.63;;;4.10;;
36815;SDS011;71982;52.294;6.760;2023-10-31T10:08:52;8.73;;;3.53;;
36815;SDS011;71982;52.294;6.760;2023-10-31T10:11:19;7.60;;;3.42;;
36815;SDS011;71982;52.294;6.760;2023-10-31T10:13:45;9.25;;;3.53;;
36815;SDS011;71982;52.294;6.760;2023-10-31T10:16:12;6.32;;;3.15;;
36815;SDS011;71982;52.294;6.760;2023-10-31T10:18:53;4.85;;;3.00;;
36815;SDS011;71982;52.294;6.760;2023-10-31T10:21:20;4.43;;;3.05;;
36815;SDS011;71982;52.294;6.760;2023-10-31T10:23:48;6.93;;;2.95;;
36815;SDS011;71982;52.294;6.760;2023-10-31T10:26:17;8.63;;;3.07;;
36815;SDS011;71982;52.294;6.760;2023-10-31T10:28:46;6.18;;;2.60;;
36815;SDS011;71982;52.294;6.760;2023-10-31T10:31:13;9.68;;;2.90;;
36815;SDS011;71982;52.294;6.760;2023-10-31T10:33:40;8.35;;;2.20;;
36815;SDS011;71982;52.294;6.760;2023-10-31T10:36:08;8.93;;;3.85;;
36815;SDS011;71982;52.294;6.760;2023-10-31T10:38:37;4.78;;;2.15;;
36815;SDS011;71982;52.294;6.760;2023-10-31T10:41:06;4.03;;;2.15;;
36815;SDS011;71982;52.294;6.760;2023-10-31T10:43:38;7.10;;;2.97;;
36815;SDS011;71982;52.294;6.760;2023-10-31T10:46:09;5.35;;;1.92;;
36815;SDS011;71982;52.294;6.760;2023-10-31T10:48:41;3.63;;;1.50;;
36815;SDS011;71982;52.294;6.760;2023-10-31T10:51:13;4.70;;;1.50;;
36815;SDS011;71982;52.294;6.760;2023-10-31T10:53:48;5.47;;;2.08;;
36815;SDS011;71982;52.294;6.760;2023-10-31T10:56:18;4.10;;;1.33;;
36815;SDS011;71982;52.294;6.760;2023-10-31T10:58:51;5.55;;;1.63;;
36815;SDS011;71982;52.294;6.760;2023-10-31T11:01:21;2.90;;;1.52;;
36815;SDS011;71982;52.294;6.760;2023-10-31T11:04:03;4.72;;;1.75;;
36815;SDS011;71982;52.294;6.760;2023-10-31T11:06:31;4.65;;;2.05;;
36815;SDS011;71982;52.294;6.760;2023-10-31T11:09:00;3.05;;;1.33;;
36815;SDS011;71982;52.294;6.760;2023-10-31T11:11:29;8.05;;;2.28;;
36815;SDS011;71982;52.294;6.760;2023-10-31T11:13:55;4.82;;;1.88;;
36815;SDS011;71982;52.294;6.760;2023-10-31T11:16:26;2.70;;;1.10;;
36815;SDS011;71982;52.294;6.760;2023-10-31T11:18:56;3.70;;;1.45;;
36815;SDS011;71982;52.294;6.760;2023-10-31T11:21:23;4.47;;;1.42;;
36815;SDS011;71982;52.294;6.760;2023-10-31T11:23:56;3.38;;;1.15;;
36815;SDS011;71982;52.294;6.760;2023-10-31T11:26:25;3.55;;;1.40;;
36815;SDS011;71982;52.294;6.760;2023-10-31T11:28:53;3.20;;;1.15;;
36815;SDS011;71982;52.294;6.760;2023-10-31T11:31:30;5.63;;;1.30;;
36815;SDS011;71982;52.294;6.760;2023-10-31T11:33:57;3.33;;;1.67;;
36815;SDS011;71982;52.294;6.760;2023-10-31T11:36:24;4.93;;;1.60;;
36815;SDS011;71982;52.294;6.760;2023-10-31T11:38:50;3.25;;;1.02;;
36815;SDS011;71982;52.294;6.760;2023-10-31T11:41:37;5.13;;;1.90;;
36815;SDS011;71982;52.294;6.760;2023-10-31T12:51:57;3.03;;;0.80;;
36815;SDS011;71982;52.294;6.760;2023-10-31T12:54:29;7.75;;;1.80;;
36815;SDS011;71982;52.294;6.760;2023-10-31T12:56:58;4.00;;;0.85;;
36815;SDS011;71982;52.294;6.760;2023-10-31T12:59:26;4.97;;;1.00;;
36815;SDS011;71982;52.294;6.760;2023-10-31T13:01:56;2.83;;;0.80;;
36815;SDS011;71982;52.294;6.760;2023-10-31T13:04:25;2.17;;;0.95;;
36815;SDS011;71982;52.294;6.760;2023-10-31T13:06:56;2.70;;;0.75;;
36815;SDS011;71982;52.294;6.760;2023-10-31T13:09:27;4.60;;;0.80;;
36815;SDS011;71982;52.294;6.760;2023-10-31T13:11:57;2.47;;;0.65;;
36815;SDS011;71982;52.294;6.760;2023-10-31T13:14:24;3.58;;;1.02;;
36815;SDS011;71982;52.294;6.760;2023-10-31T13:16:51;4.88;;;1.20;;
36815;SDS011;71982;52.294;6.760;2023-10-31T13:19:18;4.45;;;0.90;;
36815;SDS011;71982;52.294;6.760;2023-10-31T13:21:48;5.00;;;1.10;;
36815;SDS011;71982;52.294;6.760;2023-10-31T13:24:15;3.95;;;0.93;;
36815;SDS011;71982;52.294;6.760;2023-10-31T13:26:45;3.97;;;1.00;;
36815;SDS011;71982;52.294;6.760;2023-10-31T13:29:16;5.35;;;0.90;;
36815;SDS011;71982;52.294;6.760;2023-10-31T13:31:43;6.43;;;1.45;;
36815;SDS011;71982;52.294;6.760;2023-10-31T13:34:13;4.57;;;1.35;;
36815;SDS011;71982;52.294;6.760;2023-10-31T13:36:39;7.68;;;1.60;;
36815;SDS011;71982;52.294;6.760;2023-10-31T13:39:09;5.05;;;0.85;;
36815;SDS011;71982;52.294;6.760;2023-10-31T13:41:36;1.52;;;0.50;;
36815;SDS011;71982;52.294;6.760;2023-10-31T13:44:04;5.05;;;1.05;;
36815;SDS011;71982;52.294;6.760;2023-10-31T13:46:42;5.03;;;0.98;;
36815;SDS011;71982;52.294;6.760;2023-10-31T13:49:12;7.07;;;0.90;;
36815;SDS011;71982;52.294;6.760;2023-10-31T13:51:42;0.80;;;0.68;;
36815;SDS011;71982;52.294;6.760;2023-10-31T13:54:10;10.73;;;1.40;;
36815;SDS011;71982;52.294;6.760;2023-10-31T13:56:37;4.07;;;1.05;;
36815;SDS011;71982;52.294;6.760;2023-10-31T13:59:04;4.25;;;1.13;;
36815;SDS011;71982;52.294;6.760;2023-10-31T14:01:31;5.82;;;1.30;;
36815;SDS011;71982;52.294;6.760;2023-10-31T14:03:58;6.70;;;1.33;;
36815;SDS011;71982;52.294;6.760;2023-10-31T14:06:25;3.20;;;1.20;;
36815;SDS011;71982;52.294;6.760;2023-10-31T14:08:55;5.15;;;1.40;;
36815;SDS011;71982;52.294;6.760;2023-10-31T14:11:23;3.67;;;1.55;;
36815;SDS011;71982;52.294;6.760;2023-10-31T14:13:50;5.80;;;1.80;;
36815;SDS011;71982;52.294;6.760;2023-10-31T14:16:24;4.18;;;1.70;;
36815;SDS011;71982;52.294;6.760;2023-10-31T14:18:51;5.63;;;1.90;;
36815;SDS011;71982;52.294;6.760;2023-10-31T14:21:18;7.60;;;1.98;;
36815;SDS011;71982;52.294;6.760;2023-10-31T14:23:45;6.97;;;1.80;;
36815;SDS011;71982;52.294;6.760;2023-10-31T14:26:19;5.60;;;1.90;;
36815;SDS011;71982;52.294;6.760;2023-10-31T14:31:28;2.92;;;1.50;;
36815;SDS011;71982;52.294;6.760;2023-10-31T14:33:55;6.28;;;1.30;;
36815;SDS011;71982;52.294;6.760;2023-10-31T14:36:28;3.13;;;1.30;;
36815;SDS011;71982;52.294;6.760;2023-10-31T14:38:54;2.92;;;1.23;;
36815;SDS011;71982;52.294;6.760;2023-10-31T14:41:23;5.22;;;1.60;;
36815;SDS011;71982;52.294;6.760;2023-10-31T14:43:50;1.70;;;0.90;;
36815;SDS011;71982;52.294;6.760;2023-10-31T14:46:17;1.88;;;1.20;;
36815;SDS011;71982;52.294;6.760;2023-10-31T14:48:44;3.97;;;1.13;;
36815;SDS011;71982;52.294;6.760;2023-10-31T14:51:11;4.70;;;1.58;;
36815;SDS011;71982;52.294;6.760;2023-10-31T14:53:39;4.47;;;1.30;;
36815;SDS011;71982;52.294;6.760;2023-10-31T14:56:12;1.90;;;1.13;;
36815;SDS011;71982;52.294;6.760;2023-10-31T14:58:43;2.33;;;1.00;;
36815;SDS011;71982;52.294;6.760;2023-10-31T15:01:10;5.43;;;1.40;;
36815;SDS011;71982;52.294;6.760;2023-10-31T15:03:38;5.03;;;1.30;;
36815;SDS011;71982;52.294;6.760;2023-10-31T15:06:10;7.10;;;1.50;;
36815;SDS011;71982;52.294;6.760;2023-10-31T15:08:38;3.58;;;1.38;;
36815;SDS011;71982;52.294;6.760;2023-10-31T15:13:55;2.70;;;1.10;;
36815;SDS011;71982;52.294;6.760;2023-10-31T15:16:22;3.60;;;1.50;;
36815;SDS011;71982;52.294;6.760;2023-10-31T15:18:48;3.95;;;1.92;;
36815;SDS011;71982;52.294;6.760;2023-10-31T15:21:15;4.32;;;1.60;;
36815;SDS011;71982;52.294;6.760;2023-10-31T15:23:42;2.55;;;1.20;;
36815;SDS011;71982;52.294;6.760;2023-10-31T15:26:15;2.72;;;1.15;;
36815;SDS011;71982;52.294;6.760;2023-10-31T15:28:47;2.80;;;1.48;;
36815;SDS011;71982;52.294;6.760;2023-10-31T15:33:45;5.72;;;2.30;;
36815;SDS011;71982;52.294;6.760;2023-10-31T15:36:15;10.02;;;3.13;;
36815;SDS011;71982;52.294;6.760;2023-10-31T15:38:42;4.90;;;3.15;;
36815;SDS011;71982;52.294;6.760;2023-10-31T15:41:15;6.90;;;2.53;;
36815;SDS011;71982;52.294;6.760;2023-10-31T15:43:44;23.00;;;11.80;;
36815;SDS011;71982;52.294;6.760;2023-10-31T15:46:11;44.92;;;24.05;;
36815;SDS011;71982;52.294;6.760;2023-10-31T15:48:39;32.15;;;18.95;;
36815;SDS011;71982;52.294;6.760;2023-10-31T15:51:12;32.10;;;20.00;;
36815;SDS011;71982;52.294;6.760;2023-10-31T15:53:39;25.73;;;16.38;;
36815;SDS011;71982;52.294;6.760;2023-10-31T15:56:12;10.63;;;5.70;;
36815;SDS011;71982;52.294;6.760;2023-10-31T15:58:40;18.67;;;5.25;;
36815;SDS011;71982;52.294;6.760;2023-10-31T16:01:11;10.00;;;4.60;;
36815;SDS011;71982;52.294;6.760;2023-10-31T16:03:41;7.28;;;4.75;;
36815;SDS011;71982;52.294;6.760;2023-10-31T16:06:13;11.48;;;4.45;;